createdAt,value
2023-09-27T00:02:00.218Z,-141.75
2023-09-27T00:04:27.649Z,13.70
2023-09-27T00:06:56.915Z,13.81
2023-09-27T00:09:23.778Z,13.68
2023-09-27T00:11:53.868Z,13.75
2023-09-27T00:14:23.473Z,13.77
2023-09-27T00:16:51.392Z,13.76
2023-09-27T00:19:25.703Z,13.68
2023-09-27T00:21:57.576Z,13.70
2023-09-27T00:24:26.841Z,13.70
2023-09-27T00:26:56.156Z,13.59
2023-09-27T00:29:23.137Z,13.58
2023-09-27T00:31:50.425Z,13.64
2023-09-27T00:34:19.875Z,13.45
2023-09-27T00:36:49.112Z,13.46
2023-09-27T00:39:20.523Z,13.53
2023-09-27T00:41:52.303Z,13.47
2023-09-27T00:44:21.834Z,13.45
2023-09-27T00:46:55.139Z,13.51
2023-09-27T00:49:23.082Z,13.35
2023-09-27T00:51:57.773Z,13.49
2023-09-27T00:54:24.756Z,13.40
2023-09-27T00:56:54.843Z,13.42
2023-09-27T00:59:22.594Z,13.45
2023-09-27T01:01:53.951Z,13.31
2023-09-27T01:04:23.302Z,13.42
2023-09-27T01:06:53.581Z,13.32
2023-09-27T01:09:22.950Z,13.33
2023-09-27T01:11:52.558Z,13.33
2023-09-27T01:14:21.819Z,13.29
2023-09-27T01:16:53.584Z,13.30
2023-09-27T01:19:22.683Z,13.32
2023-09-27T01:21:49.551Z,13.31
2023-09-27T01:24:20.162Z,13.27
2023-09-27T01:26:47.279Z,13.17
2023-09-27T01:29:16.384Z,13.14
2023-09-27T01:31:43.413Z,13.22
2023-09-27T01:34:12.753Z,13.16
2023-09-27T01:36:39.663Z,13.04
2023-09-27T01:39:08.991Z,13.07
2023-09-27T01:41:38.306Z,13.13
2023-09-27T01:44:09.929Z,13.10
2023-09-27T01:46:40.034Z,13.06
2023-09-27T01:49:06.931Z,13.04
2023-09-27T01:51:37.295Z,13.06
2023-09-27T01:54:06.509Z,12.94
2023-09-27T01:56:37.924Z,12.91
2023-09-27T01:59:04.955Z,13.00
2023-09-27T02:01:37.558Z,13.01
2023-09-27T02:04:05.689Z,12.97
2023-09-27T02:06:32.829Z,12.83
2023-09-27T02:09:05.381Z,12.80
2023-09-27T02:11:32.625Z,12.88
2023-09-27T02:14:05.445Z,12.81
2023-09-27T02:16:35.123Z,12.77
2023-09-27T02:19:05.634Z,12.74
2023-09-27T02:21:32.609Z,12.73
2023-09-27T02:23:59.400Z,12.67
2023-09-27T02:26:26.296Z,12.61
2023-09-27T02:28:56.129Z,12.76
2023-09-27T02:31:28.852Z,12.74
2023-09-27T02:33:58.227Z,12.71
2023-09-27T02:36:25.171Z,12.67
2023-09-27T02:38:52.405Z,12.61
2023-09-27T02:41:24.271Z,12.61
2023-09-27T02:43:51.142Z,12.67
2023-09-27T02:46:20.276Z,12.59
2023-09-27T02:48:51.970Z,12.52
2023-09-27T02:51:25.936Z,12.56
2023-09-27T02:53:55.360Z,12.55
2023-09-27T02:56:24.785Z,12.51
2023-09-27T02:58:54.019Z,12.55
2023-09-27T03:01:23.912Z,12.47
2023-09-27T03:03:53.467Z,12.48
2023-09-27T03:06:22.525Z,12.41
2023-09-27T03:08:52.314Z,12.47
2023-09-27T03:11:21.695Z,12.46
2023-09-27T03:13:50.875Z,12.46
2023-09-27T03:16:23.442Z,12.42
2023-09-27T03:18:53.432Z,12.45
2023-09-27T03:21:25.986Z,12.42
2023-09-27T03:23:54.439Z,12.39
2023-09-27T03:26:24.071Z,12.39
2023-09-27T03:28:55.078Z,12.43
2023-09-27T03:31:22.646Z,12.36
2023-09-27T03:33:54.550Z,12.40
2023-09-27T03:36:23.774Z,12.36
2023-09-27T03:38:51.173Z,12.38
2023-09-27T03:41:23.351Z,12.37
2023-09-27T03:43:52.361Z,12.35
2023-09-27T03:46:21.523Z,12.23
2023-09-27T03:48:48.496Z,12.25
2023-09-27T03:51:26.757Z,12.28
2023-09-27T03:53:55.961Z,12.20
2023-09-27T03:56:25.380Z,12.17
2023-09-27T03:58:52.503Z,12.21
2023-09-27T04:01:19.850Z,12.13
2023-09-27T04:03:50.973Z,12.21
2023-09-27T04:06:20.490Z,12.13
2023-09-27T04:08:49.558Z,12.18
2023-09-27T04:11:21.489Z,12.21
2023-09-27T04:13:49.786Z,12.05
2023-09-27T04:16:19.042Z,12.14
2023-09-27T04:18:45.971Z,12.06
2023-09-27T04:21:15.421Z,12.09
2023-09-27T04:23:44.520Z,12.13
2023-09-27T04:26:14.005Z,12.12
2023-09-27T04:28:43.861Z,12.16
2023-09-27T04:31:10.858Z,12.14
2023-09-27T04:33:42.402Z,12.13
2023-09-27T04:36:19.075Z,12.09
2023-09-27T04:38:49.428Z,12.04
2023-09-27T04:41:19.455Z,12.13
2023-09-27T04:43:46.474Z,12.05
2023-09-27T04:46:18.041Z,12.18
2023-09-27T04:48:52.272Z,12.03
2023-09-27T04:51:21.525Z,12.12
2023-09-27T04:53:53.888Z,12.02
2023-09-27T04:56:23.202Z,12.03
2023-09-27T04:58:53.485Z,11.99
2023-09-27T05:01:20.471Z,12.05
2023-09-27T05:03:47.421Z,11.90
2023-09-27T05:06:16.682Z,12.04
2023-09-27T05:08:45.823Z,12.01
2023-09-27T05:11:19.926Z,11.94
2023-09-27T05:13:48.065Z,11.99
2023-09-27T05:16:17.701Z,12.00
2023-09-27T05:18:49.055Z,11.94
2023-09-27T05:21:18.623Z,12.03
2023-09-27T05:23:48.571Z,12.07
2023-09-27T05:26:17.712Z,12.04
2023-09-27T05:28:46.748Z,12.09
2023-09-27T05:31:13.684Z,12.10
2023-09-27T05:33:46.575Z,12.01
2023-09-27T05:36:13.984Z,11.97
2023-09-27T05:38:48.071Z,12.05
2023-09-27T05:41:15.344Z,12.02
2023-09-27T05:43:44.592Z,12.06
2023-09-27T05:46:13.665Z,12.10
2023-09-27T05:48:42.814Z,12.07
2023-09-27T05:51:14.760Z,11.98
2023-09-27T05:53:53.460Z,12.02
2023-09-27T05:56:27.202Z,12.02
2023-09-27T05:59:00.749Z,12.00
2023-09-27T06:01:30.092Z,12.12
2023-09-27T06:03:59.503Z,12.05
2023-09-27T06:06:26.486Z,12.12
2023-09-27T06:08:56.250Z,12.15
2023-09-27T06:11:25.294Z,12.08
2023-09-27T06:13:54.306Z,12.15
2023-09-27T06:16:21.387Z,12.20
2023-09-27T06:18:55.295Z,12.16
2023-09-27T06:21:22.195Z,12.21
2023-09-27T06:23:51.286Z,12.27
2023-09-27T06:26:20.657Z,12.08
2023-09-27T06:28:50.156Z,12.42
2023-09-27T06:31:19.824Z,12.37
2023-09-27T06:33:48.292Z,12.53
2023-09-27T06:36:22.952Z,12.55
2023-09-27T06:38:54.625Z,12.67
2023-09-27T06:41:21.725Z,12.73
2023-09-27T06:43:49.316Z,12.78
2023-09-27T06:46:18.953Z,12.86
2023-09-27T06:48:46.097Z,12.92
2023-09-27T06:51:14.896Z,12.89
2023-09-27T06:53:44.581Z,13.06
2023-09-27T06:56:11.668Z,13.15
2023-09-27T06:58:41.465Z,13.21
2023-09-27T07:01:11.398Z,13.21
2023-09-27T07:03:41.669Z,13.34
2023-09-27T07:06:10.954Z,13.39
2023-09-27T07:08:40.202Z,13.43
2023-09-27T07:11:10.707Z,13.47
2023-09-27T07:13:42.703Z,13.55
2023-09-27T07:16:30.812Z,13.74
2023-09-27T07:19:06.996Z,13.73
2023-09-27T07:21:33.980Z,13.76
2023-09-27T07:24:04.802Z,13.94
2023-09-27T07:26:34.184Z,13.98
2023-09-27T07:29:03.613Z,13.95
2023-09-27T07:31:36.708Z,14.08
2023-09-27T07:34:10.974Z,14.23
2023-09-27T07:36:40.101Z,14.21
2023-09-27T07:39:12.857Z,14.33
2023-09-27T07:41:43.275Z,14.50
2023-09-27T07:44:13.513Z,14.49
2023-09-27T07:46:42.842Z,14.59
2023-09-27T07:49:12.088Z,14.70
2023-09-27T07:51:41.853Z,14.76
2023-09-27T07:54:16.716Z,14.83
2023-09-27T07:56:47.197Z,14.88
2023-09-27T07:59:16.851Z,14.84
2023-09-27T08:01:46.057Z,15.04
2023-09-27T08:04:17.337Z,15.13
2023-09-27T08:06:47.688Z,15.19
2023-09-27T08:09:38.897Z,15.28
2023-09-27T08:12:10.058Z,15.33
2023-09-27T08:14:44.174Z,15.35
2023-09-27T08:17:13.451Z,15.44
2023-09-27T08:19:47.840Z,15.45
2023-09-27T08:22:17.304Z,15.57
2023-09-27T08:24:50.966Z,15.66
2023-09-27T08:27:21.233Z,15.74
2023-09-27T08:29:51.364Z,15.79
2023-09-27T08:32:20.716Z,15.87
2023-09-27T08:34:52.460Z,15.94
2023-09-27T08:37:21.833Z,15.94
2023-09-27T08:39:53.599Z,16.10
2023-09-27T08:42:21.542Z,16.17
2023-09-27T08:44:50.315Z,16.16
2023-09-27T08:47:21.068Z,16.20
2023-09-27T08:49:53.397Z,16.33
2023-09-27T08:52:22.242Z,16.35
2023-09-27T08:54:51.558Z,16.44
2023-09-27T08:57:24.859Z,16.60
2023-09-27T08:59:52.003Z,16.65
2023-09-27T09:02:25.651Z,16.67
2023-09-27T09:04:57.258Z,16.76
2023-09-27T09:07:24.309Z,16.87
2023-09-27T09:09:55.857Z,16.94
2023-09-27T09:12:22.686Z,16.94
2023-09-27T09:14:56.275Z,17.00
2023-09-27T09:17:35.663Z,17.04
2023-09-27T09:20:37.633Z,17.20
2023-09-27T09:23:14.077Z,17.27
2023-09-27T09:25:46.578Z,17.31
2023-09-27T09:28:18.858Z,17.40
2023-09-27T09:30:53.292Z,17.50
2023-09-27T09:33:38.228Z,17.57
2023-09-27T09:36:08.069Z,17.65
2023-09-27T09:38:37.975Z,17.74
2023-09-27T09:41:04.855Z,17.80
2023-09-27T09:43:38.541Z,17.88
2023-09-27T09:46:12.075Z,17.93
2023-09-27T09:48:42.672Z,17.97
2023-09-27T09:51:17.260Z,-141.75
2023-09-27T09:53:48.731Z,-141.75
2023-09-27T09:58:59.033Z,-141.75
2023-09-27T10:01:30.082Z,-141.75
2023-09-27T10:04:07.149Z,-141.75
2023-09-27T10:06:48.645Z,-141.75
2023-09-27T10:09:19.756Z,-141.75
2023-09-27T10:11:50.049Z,-141.75
2023-09-27T10:14:20.660Z,-141.75
2023-09-27T10:16:50.143Z,-141.75
2023-09-27T10:19:30.442Z,-141.75
2023-09-27T10:22:09.279Z,-141.75
2023-09-27T10:24:43.216Z,-141.75
2023-09-27T10:27:12.418Z,-141.75
2023-09-27T10:29:59.484Z,-141.75
2023-09-27T10:32:26.730Z,-141.75
2023-09-27T10:34:58.223Z,-141.75
2023-09-27T10:38:07.925Z,-141.75
2023-09-27T10:40:46.365Z,-141.75
2023-09-27T10:43:45.089Z,-141.75
2023-09-27T10:46:14.358Z,-141.75
2023-09-27T10:48:53.327Z,-141.75
2023-09-27T10:51:26.370Z,-141.75
2023-09-27T10:53:56.492Z,18.08
2023-09-27T10:56:23.493Z,20.18
2023-09-27T10:58:55.683Z,20.24
2023-09-27T11:01:25.052Z,20.25
2023-09-27T11:04:02.542Z,20.39
2023-09-27T11:06:32.887Z,20.41
2023-09-27T11:09:07.824Z,20.57
2023-09-27T11:11:37.683Z,20.54
2023-09-27T11:14:09.545Z,20.67
2023-09-27T11:16:41.189Z,20.80
2023-09-27T11:19:08.888Z,20.85
2023-09-27T11:21:35.818Z,20.84
2023-09-27T11:24:07.936Z,20.90
2023-09-27T11:26:37.614Z,20.98
2023-09-27T11:29:04.474Z,21.04
2023-09-27T11:31:35.964Z,21.22
2023-09-27T11:34:31.764Z,21.27
2023-09-27T11:37:04.085Z,21.32
2023-09-27T11:39:48.784Z,21.39
2023-09-27T11:42:20.854Z,21.41
2023-09-27T11:45:01.160Z,21.48
2023-09-27T11:47:28.098Z,21.50
2023-09-27T11:49:57.319Z,21.56
2023-09-27T11:52:26.815Z,21.64
2023-09-27T11:54:58.541Z,21.66
2023-09-27T11:57:25.629Z,21.75
2023-09-27T11:59:59.240Z,21.78
2023-09-27T12:02:40.276Z,21.86
2023-09-27T12:05:14.523Z,21.89
2023-09-27T12:07:45.068Z,21.92
2023-09-27T12:10:17.515Z,21.96
2023-09-27T12:12:49.852Z,22.01
2023-09-27T12:15:17.235Z,22.06
2023-09-27T12:17:44.837Z,22.00
2023-09-27T12:20:31.461Z,22.14
2023-09-27T12:23:08.764Z,22.15
2023-09-27T12:25:41.169Z,22.12
2023-09-27T12:28:12.798Z,22.13
2023-09-27T12:30:39.668Z,22.24
2023-09-27T12:33:13.459Z,22.25
2023-09-27T12:35:45.348Z,22.14
2023-09-27T12:38:12.380Z,22.29
2023-09-27T12:40:44.194Z,22.29
2023-09-27T12:43:11.816Z,22.24
2023-09-27T12:45:46.055Z,22.22
2023-09-27T12:48:15.614Z,22.26
2023-09-27T12:50:43.116Z,22.24
2023-09-27T12:53:12.617Z,22.31
2023-09-27T12:55:43.693Z,22.30
2023-09-27T12:58:17.867Z,22.32
2023-09-27T13:00:44.915Z,22.28
2023-09-27T13:03:14.145Z,22.31
2023-09-27T13:05:45.980Z,22.23
2023-09-27T13:08:20.273Z,22.28
2023-09-27T13:10:47.156Z,22.27
2023-09-27T13:13:16.484Z,22.23
2023-09-27T13:15:45.713Z,22.20
2023-09-27T13:18:17.426Z,22.14
2023-09-27T13:20:48.961Z,22.16
2023-09-27T13:23:19.392Z,22.19
2023-09-27T13:25:59.393Z,22.09
2023-09-27T13:28:31.019Z,22.12
2023-09-27T13:30:57.931Z,22.15
2023-09-27T13:33:27.104Z,22.06
2023-09-27T13:36:00.406Z,22.05
2023-09-27T13:38:29.568Z,22.07
2023-09-27T13:41:02.722Z,22.06
2023-09-27T13:43:30.076Z,21.96
2023-09-27T13:46:04.474Z,21.97
2023-09-27T13:48:35.379Z,21.96
2023-09-27T13:51:07.043Z,22.03
2023-09-27T13:53:36.825Z,21.89
2023-09-27T13:56:04.148Z,21.99
2023-09-27T13:58:33.406Z,21.78
2023-09-27T14:01:06.513Z,21.98
2023-09-27T14:03:33.616Z,21.96
2023-09-27T14:06:02.902Z,21.95
2023-09-27T14:08:32.464Z,21.90
2023-09-27T14:10:59.316Z,21.88
2023-09-27T14:13:27.780Z,21.87
2023-09-27T14:15:54.670Z,21.91
2023-09-27T14:18:21.696Z,21.83
2023-09-27T14:20:53.425Z,21.91
2023-09-27T14:23:30.069Z,21.83
2023-09-27T14:26:01.760Z,21.83
2023-09-27T14:28:34.496Z,21.84
2023-09-27T14:31:13.417Z,21.82
2023-09-27T14:33:40.328Z,21.83
2023-09-27T14:36:12.158Z,21.85
2023-09-27T14:38:41.570Z,21.83
2023-09-27T14:41:13.341Z,21.73
2023-09-27T14:43:40.683Z,21.74
2023-09-27T14:46:14.209Z,21.80
2023-09-27T14:48:45.856Z,21.73
2023-09-27T14:51:16.439Z,21.73
2023-09-27T14:53:47.915Z,21.79
2023-09-27T14:56:19.492Z,21.68
2023-09-27T14:58:49.177Z,21.75
2023-09-27T15:01:19.033Z,21.75
2023-09-27T15:03:50.955Z,21.58
2023-09-27T15:06:22.750Z,21.73
2023-09-27T15:08:54.786Z,21.64
2023-09-27T15:11:30.057Z,21.58
2023-09-27T15:13:59.660Z,21.65
2023-09-27T15:16:31.185Z,21.63
2023-09-27T15:19:06.031Z,21.63
2023-09-27T15:21:37.730Z,21.53
2023-09-27T15:24:04.850Z,21.58
2023-09-27T15:26:38.938Z,21.56
2023-09-27T15:29:08.524Z,21.55
2023-09-27T15:31:37.971Z,21.42
2023-09-27T15:34:07.026Z,21.52
2023-09-27T15:36:38.459Z,21.45
2023-09-27T15:39:10.051Z,21.50
2023-09-27T15:41:39.162Z,21.48
2023-09-27T15:44:10.645Z,21.47
2023-09-27T15:46:45.061Z,21.46
2023-09-27T15:49:14.568Z,21.43
2023-09-27T15:51:45.500Z,21.42
2023-09-27T15:54:19.351Z,21.42
2023-09-27T15:56:46.607Z,21.32
2023-09-27T15:59:16.147Z,21.39
2023-09-27T16:01:43.629Z,21.26
2023-09-27T16:04:15.328Z,21.29
2023-09-27T16:06:44.777Z,21.28
2023-09-27T16:09:12.019Z,21.24
2023-09-27T16:11:42.996Z,21.18
2023-09-27T16:14:13.869Z,21.29
2023-09-27T16:16:43.216Z,21.20
2023-09-27T16:19:12.338Z,21.26
2023-09-27T16:21:45.126Z,21.22
2023-09-27T16:24:14.628Z,21.19
2023-09-27T16:26:46.405Z,21.12
2023-09-27T16:29:15.738Z,21.09
2023-09-27T16:31:46.921Z,21.14
2023-09-27T16:34:18.754Z,21.10
2023-09-27T16:36:48.033Z,21.06
2023-09-27T16:39:19.986Z,21.05
2023-09-27T16:41:50.405Z,21.02
2023-09-27T16:44:21.875Z,20.98
2023-09-27T16:46:51.165Z,20.96
2023-09-27T16:49:18.059Z,20.93
2023-09-27T16:51:47.580Z,20.89
2023-09-27T16:54:16.765Z,20.84
2023-09-27T16:56:43.589Z,20.79
2023-09-27T16:59:11.459Z,20.73
2023-09-27T17:01:40.793Z,20.68
2023-09-27T17:04:09.069Z,20.59
2023-09-27T17:06:39.223Z,20.60
2023-09-27T17:09:11.852Z,20.47
2023-09-27T17:11:46.262Z,20.42
2023-09-27T17:14:13.224Z,20.46
2023-09-27T17:16:41.164Z,20.36
2023-09-27T17:19:10.356Z,20.36
2023-09-27T17:21:42.067Z,20.29
2023-09-27T17:24:11.705Z,20.23
2023-09-27T17:26:39.905Z,20.05
2023-09-27T17:29:09.355Z,20.10
2023-09-27T17:31:41.711Z,20.01
2023-09-27T17:34:13.578Z,19.94
2023-09-27T17:36:47.725Z,19.90
2023-09-27T17:39:17.136Z,19.84
2023-09-27T17:41:47.774Z,19.84
2023-09-27T17:44:19.574Z,19.75
2023-09-27T17:46:48.648Z,19.71
2023-09-27T17:49:17.737Z,19.60
2023-09-27T17:51:49.257Z,19.60
2023-09-27T17:54:16.189Z,19.49
2023-09-27T17:56:47.939Z,19.50
2023-09-27T17:59:20.036Z,19.49
2023-09-27T18:01:48.130Z,19.42
2023-09-27T18:04:17.285Z,19.39
2023-09-27T18:06:51.124Z,19.33
2023-09-27T18:09:25.975Z,19.23
2023-09-27T18:11:57.372Z,19.26
2023-09-27T18:14:25.372Z,19.21
2023-09-27T18:16:52.273Z,19.12
2023-09-27T18:19:24.093Z,19.13
2023-09-27T18:21:53.251Z,19.02
2023-09-27T18:24:22.409Z,19.04
2023-09-27T18:26:51.819Z,18.91
2023-09-27T18:29:23.090Z,18.93
2023-09-27T18:31:57.089Z,18.87
2023-09-27T18:34:25.836Z,18.81
2023-09-27T18:36:52.716Z,18.74
2023-09-27T18:39:21.975Z,18.67
2023-09-27T18:41:58.248Z,18.64
2023-09-27T18:44:29.885Z,18.61
2023-09-27T18:46:56.860Z,18.57
2023-09-27T18:49:30.078Z,18.50
2023-09-27T18:51:58.136Z,18.46
2023-09-27T18:54:27.620Z,18.41
2023-09-27T18:56:56.771Z,18.35
2023-09-27T18:59:27.198Z,18.27
2023-09-27T19:01:58.898Z,18.24
2023-09-27T19:04:25.976Z,18.21
2023-09-27T19:06:55.257Z,18.16
2023-09-27T19:09:22.482Z,18.12
2023-09-27T19:11:54.590Z,18.08
2023-09-27T19:14:29.143Z,18.01
2023-09-27T19:16:58.563Z,18.01
2023-09-27T19:19:29.762Z,17.98
2023-09-27T19:21:56.531Z,17.96
2023-09-27T19:24:34.615Z,17.92
2023-09-27T19:27:03.822Z,17.86
2023-09-27T19:29:33.522Z,17.83
2023-09-27T19:32:05.377Z,17.81
2023-09-27T19:34:37.492Z,17.76
2023-09-27T19:37:11.178Z,17.70
2023-09-27T19:39:40.608Z,17.68
2023-09-27T19:42:09.718Z,17.60
2023-09-27T19:44:43.527Z,17.65
2023-09-27T19:47:15.205Z,17.63
2023-09-27T19:49:42.221Z,17.56
2023-09-27T19:52:12.204Z,17.62
2023-09-27T19:54:39.269Z,17.60
2023-09-27T19:57:11.007Z,17.59
2023-09-27T19:59:43.067Z,17.50
2023-09-27T20:02:13.079Z,17.53
2023-09-27T20:04:44.387Z,17.50
2023-09-27T20:07:11.306Z,17.45
2023-09-27T20:09:38.154Z,17.46
2023-09-27T20:12:07.647Z,17.44
2023-09-27T20:14:41.721Z,17.38
2023-09-27T20:17:08.769Z,17.40
2023-09-27T20:19:42.775Z,17.37
2023-09-27T20:22:14.461Z,17.39
2023-09-27T20:24:43.884Z,17.37
2023-09-27T20:27:12.927Z,17.29
2023-09-27T20:29:44.946Z,17.23
2023-09-27T20:32:14.092Z,17.18
2023-09-27T20:34:44.208Z,17.17
2023-09-27T20:37:11.328Z,17.10
2023-09-27T20:39:40.100Z,17.15
2023-09-27T20:42:11.763Z,17.13
2023-09-27T20:44:45.626Z,17.09
2023-09-27T20:47:15.769Z,17.08
2023-09-27T20:49:47.369Z,17.03
2023-09-27T20:52:21.588Z,17.02
2023-09-27T20:54:48.435Z,16.97
2023-09-27T20:57:15.380Z,16.94
2023-09-27T20:59:44.429Z,16.90
2023-09-27T21:02:14.090Z,16.88
2023-09-27T21:04:41.103Z,16.88
2023-09-27T21:07:14.848Z,16.76
2023-09-27T21:09:41.698Z,16.74
2023-09-27T21:12:13.139Z,16.78
2023-09-27T21:14:44.545Z,16.72
2023-09-27T21:17:14.490Z,16.59
2023-09-27T21:19:47.712Z,16.68
2023-09-27T21:22:15.674Z,16.66
2023-09-27T21:24:42.459Z,16.64
2023-09-27T21:27:12.623Z,16.58
2023-09-27T21:29:44.023Z,16.53
2023-09-27T21:32:15.728Z,16.48
2023-09-27T21:34:49.975Z,16.48
2023-09-27T21:37:21.519Z,16.41
2023-09-27T21:39:50.601Z,16.45
2023-09-27T21:42:24.638Z,16.43
2023-09-27T21:44:58.777Z,16.41
2023-09-27T21:47:28.758Z,16.40
2023-09-27T21:49:55.644Z,16.35
2023-09-27T21:52:26.165Z,16.34
2023-09-27T21:55:00.332Z,16.31
2023-09-27T21:57:29.593Z,16.27
2023-09-27T22:00:01.001Z,16.23
2023-09-27T22:02:28.036Z,16.11
2023-09-27T22:05:00.121Z,16.17
2023-09-27T22:07:27.204Z,16.07
2023-09-27T22:09:56.314Z,16.10
2023-09-27T22:12:23.159Z,16.04
2023-09-27T22:14:54.855Z,16.03
2023-09-27T22:17:24.976Z,16.02
2023-09-27T22:19:52.175Z,15.94
2023-09-27T22:22:28.589Z,15.98
2023-09-27T22:25:02.582Z,15.94
2023-09-27T22:27:31.713Z,15.92
2023-09-27T22:30:01.158Z,15.92
2023-09-27T22:32:32.824Z,15.84
2023-09-27T22:35:02.716Z,15.82
2023-09-27T22:37:33.390Z,15.84
2023-09-27T22:40:15.640Z,15.82
2023-09-27T22:42:54.330Z,15.78
2023-09-27T22:45:30.852Z,15.79
2023-09-27T22:48:01.274Z,15.73
2023-09-27T22:50:46.979Z,15.75
2023-09-27T22:53:22.688Z,15.67
2023-09-27T22:55:59.603Z,15.65
2023-09-27T22:58:28.580Z,15.67
2023-09-27T23:01:20.633Z,15.65
2023-09-27T23:03:55.361Z,15.54
2023-09-27T23:06:30.775Z,15.58
2023-09-27T23:09:01.569Z,15.54
2023-09-27T23:11:42.147Z,15.51
2023-09-27T23:14:12.806Z,15.55
2023-09-27T23:16:47.651Z,15.57
2023-09-27T23:19:19.526Z,15.55
2023-09-27T23:21:49.639Z,15.45
2023-09-27T23:24:22.418Z,15.50
2023-09-27T23:27:00.737Z,15.43
2023-09-27T23:29:30.234Z,15.42
2023-09-27T23:32:05.732Z,15.36
2023-09-27T23:34:38.589Z,15.43
2023-09-27T23:37:10.439Z,15.40
2023-09-27T23:39:48.735Z,15.29
2023-09-27T23:42:27.565Z,15.22
2023-09-27T23:45:03.189Z,15.38
2023-09-27T23:47:39.052Z,15.36
2023-09-27T23:50:18.149Z,15.34
2023-09-27T23:52:46.903Z,15.23
2023-09-27T23:55:21.862Z,15.33
2023-09-27T23:57:49.193Z,15.34
